Adventure of The Seas — C6SA3 — position and weather

sailwx.info

Track history (hours):
 
Tides and Currents Weather Stations Pressure Air Temp Water Temp Dewpoint Dewpoint Depression Visibility Wind Speed Wind Dir Waves Ship Positions

Adventure of The Seas

Operator: Royal Caribbean Cruises Ltd

Last reported at 2014-Aug-31 18:33 UTC. Time now 2014-Sep-01 11:15 UTC.
Position N 50°26' W 001°21'.

Type: Passenger vessel. MMSI: 311263000.

Date/timePositionNaut miles runAvg speedWind from/ knotsBaromVisibWave heightAir tempDewpointWater temp
2014-Aug-31 18:33N 50°26' W 001°21'1918.8
2014-Aug-31 17:34N 50°38' W 000°58'1413.7
2014-Aug-31 16:34N 50°46' W 001°15'10 1.9
2014-Aug-31 11:26N 50°54' W 001°25'0 0.0
2014-Aug-31 05:08N 50°54' W 001°25'1 0.8
2014-Aug-31 03:33N 50°53' W 001°24'9 9.1
2014-Aug-31 02:33N 50°46' W 001°14'1313.2
2014-Aug-31 01:33N 50°38' W 000°58'1313.2
2014-Aug-31 00:33N 50°26' W 000°49'4313.1
2014-Aug-30 21:18N 49°46' W 000°25'912.3
2014-Aug-30 20:34N 49°37' W 000°20'1111.4
2014-Aug-30 19:34N 49°32' W 000°05'8 7.9
2014-Aug-30 18:32N 49°29' E 000°06'0 0.0
2014-Aug-30 17:32N 49°29' E 000°06'0 0.0
2014-Aug-30 16:32N 49°29' E 000°06'0 0.0
2014-Aug-30 15:32N 49°29' E 000°06'0 0.0
2014-Aug-30 14:32N 49°29' E 000°06'0 0.0
2014-Aug-30 13:32N 49°29' E 000°06'0 0.0
2014-Aug-30 12:32N 49°29' E 000°06'0 0.0
2014-Aug-30 11:32N 49°29' E 000°06'0 0.0
2014-Aug-30 10:32N 49°29' E 000°06'0 0.0
2014-Aug-30 09:32N 49°29' E 000°06'0 0.0
2014-Aug-30 08:32N 49°29' E 000°06'0 0.0
2014-Aug-30 07:23N 49°29' E 000°06'0 0.0
2014-Aug-30 06:29N 49°29' E 000°06'0 0.0
2014-Aug-30 05:32N 49°29' E 000°06'1 0.5
2014-Aug-30 04:33N 49°29' E 000°07'9 8.8
2014-Aug-30 03:33N 49°31' W 000°06'8 8.0
2014-Aug-30 02:33N 49°34' W 000°17'8 7.6
2014-Aug-30 01:33N 49°41' W 000°22'49 7.9
2014-Aug-29 19:21N 50°26' W 000°50'7 8.5
2014-Aug-29 18:33N 50°33' W 000°55'10 9.6
2014-Aug-29 17:34N 50°42' W 000°58'1413.8
2014-Aug-29 16:33N 50°47' W 001°18'7 0.5
2014-Aug-29 03:33N 50°53' W 001°23'10 9.6
2014-Aug-29 02:34N 50°46' W 001°13'1211.8
2014-Aug-29 01:34N 50°37' W 001°00'  
2014-Aug-26 16:15N 38°36' W 009°32'1115.2
2014-Aug-26 15:33N 38°40' W 009°19'7 7.0
2014-Aug-26 14:32N 38°42' W 009°10'0 0.0
2014-Aug-26 13:32N 38°42' W 009°10'0 0.0
2014-Aug-26 12:32N 38°42' W 009°10'0 0.0
2014-Aug-26 11:32N 38°42' W 009°10'0 0.0
2014-Aug-26 10:32N 38°42' W 009°10'0 0.0
2014-Aug-26 09:32N 38°42' W 009°10'0 0.0
2014-Aug-26 08:32N 38°42' W 009°10'0 0.0
2014-Aug-26 07:32N 38°42' W 009°10'1 0.8
2014-Aug-26 06:33N 38°41' W 009°11'1010.1
2014-Aug-26 05:34N 38°37' W 009°23'9716.0
2014-Aug-25 23:29N 36°59' W 009°19'1616.5
2014-Aug-25 22:31N 36°46' W 009°09'1818.3
2014-Aug-25 21:33N 36°42' W 008°48'1818.5
2014-Aug-25 20:33N 36°40' W 008°25'1817.5
2014-Aug-25 19:33N 36°39' W 008°03'47410.1
2014-Aug-23 20:28N 38°34' E 001°37'1314.1
2014-Aug-23 19:31N 38°44' E 001°49'53 3.3
2014-Aug-23 03:33N 39°30' E 002°21'10 9.8
2014-Aug-23 02:33N 39°40' E 002°16'1111.4
2014-Aug-23 01:33N 39°51' E 002°16'1211.7
2014-Aug-23 00:33N 40°03' E 002°15'1212.4
2014-Aug-22 23:34N 40°15' E 002°14'1312.6
2014-Aug-22 22:33N 40°28' E 002°13'1312.6
2014-Aug-22 21:34N 40°40' E 002°13'1313.3
2014-Aug-22 20:33N 40°54' E 002°12'1313.4
2014-Aug-22 19:33N 41°07' E 002°11'14 1.1
2014-Aug-22 06:32N 41°21' E 002°10'9 9.2
2014-Aug-22 05:33N 41°12' E 002°09'1515.4
2014-Aug-22 04:34N 40°58' E 001°60'1515.2
2014-Aug-22 03:33N 40°44' E 001°51'1615.9
2014-Aug-22 02:33N 40°30' E 001°41'1717.0
2014-Aug-22 01:33N 40°15' E 001°30'1918.6
2014-Aug-22 00:33N 39°59' E 001°19'9318.6
2014-Aug-21 19:33N 38°36' E 000°23'1818.5
2014-Aug-21 18:33N 38°20' E 000°11'  
Track history (hours):
 
Tides and Currents Weather Stations Pressure Air Temp Water Temp Dewpoint Dewpoint Depression Visibility Wind Speed Wind Dir Waves Ship Positions

Adventure of The Seas

Operator: Royal Caribbean Cruises Ltd

Last reported at 2014-Aug-31 18:33 UTC. Time now 2014-Sep-01 11:15 UTC.
Position N 50°26' W 001°21'.

Type: Passenger vessel. MMSI: 311263000.

Date/timePositionNaut miles runAvg speedWind from/ knotsBaromVisibWave heightAir tempDewpointWater temp
2014-Aug-31 18:33N 50°26' W 001°21'1918.8
2014-Aug-31 17:34N 50°38' W 000°58'1413.7
2014-Aug-31 16:34N 50°46' W 001°15'10 1.9
2014-Aug-31 11:26N 50°54' W 001°25'0 0.0
2014-Aug-31 05:08N 50°54' W 001°25'1 0.8
2014-Aug-31 03:33N 50°53' W 001°24'9 9.1
2014-Aug-31 02:33N 50°46' W 001°14'1313.2
2014-Aug-31 01:33N 50°38' W 000°58'1313.2
2014-Aug-31 00:33N 50°26' W 000°49'4313.1
2014-Aug-30 21:18N 49°46' W 000°25'912.3
2014-Aug-30 20:34N 49°37' W 000°20'1111.4
2014-Aug-30 19:34N 49°32' W 000°05'8 7.9
2014-Aug-30 18:32N 49°29' E 000°06'0 0.0
2014-Aug-30 17:32N 49°29' E 000°06'0 0.0
2014-Aug-30 16:32N 49°29' E 000°06'0 0.0
2014-Aug-30 15:32N 49°29' E 000°06'0 0.0
2014-Aug-30 14:32N 49°29' E 000°06'0 0.0
2014-Aug-30 13:32N 49°29' E 000°06'0 0.0
2014-Aug-30 12:32N 49°29' E 000°06'0 0.0
2014-Aug-30 11:32N 49°29' E 000°06'0 0.0
2014-Aug-30 10:32N 49°29' E 000°06'0 0.0
2014-Aug-30 09:32N 49°29' E 000°06'0 0.0
2014-Aug-30 08:32N 49°29' E 000°06'0 0.0
2014-Aug-30 07:23N 49°29' E 000°06'0 0.0
2014-Aug-30 06:29N 49°29' E 000°06'0 0.0
2014-Aug-30 05:32N 49°29' E 000°06'1 0.5
2014-Aug-30 04:33N 49°29' E 000°07'9 8.8
2014-Aug-30 03:33N 49°31' W 000°06'8 8.0
2014-Aug-30 02:33N 49°34' W 000°17'8 7.6
2014-Aug-30 01:33N 49°41' W 000°22'49 7.9
2014-Aug-29 19:21N 50°26' W 000°50'7 8.5
2014-Aug-29 18:33N 50°33' W 000°55'10 9.6
2014-Aug-29 17:34N 50°42' W 000°58'1413.8
2014-Aug-29 16:33N 50°47' W 001°18'7 0.5
2014-Aug-29 03:33N 50°53' W 001°23'10 9.6
2014-Aug-29 02:34N 50°46' W 001°13'1211.8
2014-Aug-29 01:34N 50°37' W 001°00'  
2014-Aug-26 16:15N 38°36' W 009°32'1115.2
2014-Aug-26 15:33N 38°40' W 009°19'7 7.0
2014-Aug-26 14:32N 38°42' W 009°10'0 0.0
2014-Aug-26 13:32N 38°42' W 009°10'0 0.0
2014-Aug-26 12:32N 38°42' W 009°10'0 0.0
2014-Aug-26 11:32N 38°42' W 009°10'0 0.0
2014-Aug-26 10:32N 38°42' W 009°10'0 0.0
2014-Aug-26 09:32N 38°42' W 009°10'0 0.0
2014-Aug-26 08:32N 38°42' W 009°10'0 0.0
2014-Aug-26 07:32N 38°42' W 009°10'1 0.8
2014-Aug-26 06:33N 38°41' W 009°11'1010.1
2014-Aug-26 05:34N 38°37' W 009°23'9716.0
2014-Aug-25 23:29N 36°59' W 009°19'1616.5
2014-Aug-25 22:31N 36°46' W 009°09'1818.3
2014-Aug-25 21:33N 36°42' W 008°48'1818.5
2014-Aug-25 20:33N 36°40' W 008°25'1817.5
2014-Aug-25 19:33N 36°39' W 008°03'47410.1
2014-Aug-23 20:28N 38°34' E 001°37'1314.1
2014-Aug-23 19:31N 38°44' E 001°49'53 3.3
2014-Aug-23 03:33N 39°30' E 002°21'10 9.8
2014-Aug-23 02:33N 39°40' E 002°16'1111.4
2014-Aug-23 01:33N 39°51' E 002°16'1211.7
2014-Aug-23 00:33N 40°03' E 002°15'1212.4
2014-Aug-22 23:34N 40°15' E 002°14'1312.6
2014-Aug-22 22:33N 40°28' E 002°13'1312.6
2014-Aug-22 21:34N 40°40' E 002°13'1313.3
2014-Aug-22 20:33N 40°54' E 002°12'1313.4
2014-Aug-22 19:33N 41°07' E 002°11'14 1.1
2014-Aug-22 06:32N 41°21' E 002°10'9 9.2
2014-Aug-22 05:33N 41°12' E 002°09'1515.4
2014-Aug-22 04:34N 40°58' E 001°60'1515.2
2014-Aug-22 03:33N 40°44' E 001°51'1615.9
2014-Aug-22 02:33N 40°30' E 001°41'1717.0
2014-Aug-22 01:33N 40°15' E 001°30'1918.6
2014-Aug-22 00:33N 39°59' E 001°19'9318.6
2014-Aug-21 19:33N 38°36' E 000°23'1818.5
2014-Aug-21 18:33N 38°20' E 000°11'  

Dump ship's entire track history